M I D A S
Marine Information and Data Acquisition System
Tripno 1600 of the Zeeleeuw from 2008-10-31 07:38:19 to 2008-10-31 15:32:40
Back to CruiseResearch ActivitiesStationsMapUnderway DataData graphs

EquipmentUnitsComment
TimeDGPSUTC
LatitudeDGPSDM.mWGS84
LongitudeDGPSDM.mWGS84
HeadingGyrodeg 
SOGDGPSknotsSpeed over ground
COGDGPSdegCourse over ground
DepthEcho soundermeters200 kHz
Missing or incorrect values are displayed as -999
Navigation data collected by the RV Zeeleeuw from 2008-10-31 07:39:31 to 2008-10-31 15:34:55
Time Latitude Longitude Heading SOG COG Depth
2008-10-31 07:40:41 51°13.64 2°55.965 106.9 4.1 288 -999
2008-10-31 07:41:41 51°13.671 2°55.855 119.2 4.3 300 -999
2008-10-31 07:42:40 51°13.694 2°55.798 109.3 0.8 293 9.2
2008-10-31 07:43:41 51°13.698 2°55.741 83.9 2.1 267 -999
2008-10-31 07:44:40 51°13.7 2°55.729 57.1 0.6 33 11.9
2008-10-31 07:45:38 51°13.735 2°55.73 346.1 4.2 339 11.1
2008-10-31 07:46:38 51°13.828 2°55.64 330.4 7.7 330 10.3
2008-10-31 07:47:38 51°13.929 2°55.553 332.5 6.5 333 10.2
2008-10-31 07:48:38 51°14.029 2°55.477 334.3 7.1 335 9.1
2008-10-31 07:49:38 51°14.16 2°55.374 332.7 9.9 331 9.7
2008-10-31 07:50:38 51°14.298 2°55.188 311.1 11.3 309 9.1
2008-10-31 07:51:38 51°14.404 2°54.929 301.8 12 300 9.3
2008-10-31 07:52:38 51°14.555 2°54.722 330.2 12.1 324 9
2008-10-31 07:53:38 51°14.719 2°54.534 330 12.2 325 8.8
2008-10-31 07:54:38 51°14.885 2°54.358 331.4 11.8 327 8.3
2008-10-31 07:55:38 51°15.051 2°54.201 335.4 11.6 330 7.5
2008-10-31 07:56:38 51°15.218 2°54.042 335 11.7 329 7.8
2008-10-31 07:57:38 51°15.386 2°53.88 334.9 11.8 328 8.6
2008-10-31 07:58:38 51°15.555 2°53.718 336.9 11.9 331 10.1
2008-10-31 07:59:38 51°15.728 2°53.568 338.3 11.9 331 10.7
2008-10-31 08:00:38 51°15.901 2°53.416 337.9 11.8 330 10
2008-10-31 08:01:38 51°16.074 2°53.266 340.4 11.9 332 10.6
2008-10-31 08:02:38 51°16.245 2°53.108 337.4 11.9 327 10.7
2008-10-31 08:03:38 51°16.417 2°52.957 341.6 11.8 333 10.7
2008-10-31 08:04:38 51°16.594 2°52.819 341.9 11.7 337 10.4
2008-10-31 08:05:38 51°16.77 2°52.697 341.3 11.4 336 8.7
2008-10-31 08:06:38 51°16.941 2°52.572 342.3 11.3 338 9
2008-10-31 08:07:38 51°17.116 2°52.459 343.4 11.4 336 8.7
2008-10-31 08:08:38 51°17.29 2°52.332 340.4 11.5 333 9.2
2008-10-31 08:09:38 51°17.457 2°52.182 336.9 11.5 328 9.4
2008-10-31 08:10:38 51°17.617 2°52.018 334.5 11.6 327 9.6
2008-10-31 08:11:38 51°17.78 2°51.862 335.2 11.5 328 9.2
2008-10-31 08:12:38 51°17.941 2°51.695 335 11.6 328 9.4
2008-10-31 08:13:38 51°18.103 2°51.528 335.5 11.6 328 10.3
2008-10-31 08:14:38 51°18.266 2°51.359 335.3 11.7 327 11.4
2008-10-31 08:15:38 51°18.43 2°51.187 335.8 11.8 326 12.4
2008-10-31 08:16:38 51°18.593 2°51.013 336.6 11.7 327 12.9
2008-10-31 08:17:38 51°18.756 2°50.841 336.4 11.7 327 13.8
2008-10-31 08:18:38 51°18.919 2°50.667 337.3 11.7 327 13.8
2008-10-31 08:19:38 51°19.082 2°50.493 336.1 11.9 325 12.9
2008-10-31 08:20:38 51°19.247 2°50.326 339.2 11.6 330 11.4
2008-10-31 08:21:38 51°19.413 2°50.163 336.1 11.8 329 10.9
2008-10-31 08:22:38 51°19.579 2°49.994 334.5 11.9 327 12.8
2008-10-31 08:23:38 51°19.746 2°49.827 338.1 11.7 331 14
2008-10-31 08:24:38 51°19.916 2°49.666 337.1 12 327 16.4
2008-10-31 08:25:38 51°20.08 2°49.483 332.3 12.1 324 18.6
2008-10-31 08:26:38 51°20.244 2°49.296 335.3 12 325 20.8
2008-10-31 08:27:38 51°20.407 2°49.107 333.7 12.2 323 21.6
2008-10-31 08:28:38 51°20.573 2°48.917 334.3 12.2 324 22
2008-10-31 08:29:38 51°20.738 2°48.728 334.8 12.3 325 21.5
2008-10-31 08:30:38 51°20.902 2°48.539 334 12.3 324 20.1
2008-10-31 08:31:38 51°21.07 2°48.356 334.4 12.1 325 19.5
2008-10-31 08:32:38 51°21.237 2°48.173 335.3 12.1 327 20.5
2008-10-31 08:33:38 51°21.405 2°47.99 335.2 12.2 326 21.8
2008-10-31 08:34:38 51°21.572 2°47.806 334.7 12.2 325 21.6
2008-10-31 08:35:38 51°21.742 2°47.633 336.6 12.1 329 23.6
2008-10-31 08:36:38 51°21.915 2°47.48 340.6 11.8 335 23.3
2008-10-31 08:37:38 51°22.091 2°47.345 341.6 11.8 334 22.7
2008-10-31 08:38:38 51°22.267 2°47.218 342.6 11.5 335 17.9
2008-10-31 08:39:38 51°22.439 2°47.088 342.8 11.4 337 18.2
2008-10-31 08:40:38 51°22.612 2°46.959 343.4 11.5 335 18.3
2008-10-31 08:41:38 51°22.784 2°46.827 343 11.4 335 19.1
2008-10-31 08:42:38 51°22.956 2°46.694 342.8 11.5 335 22.1
2008-10-31 08:43:38 51°23.131 2°46.564 343.8 11.5 337 23.6
2008-10-31 08:44:38 51°23.305 2°46.431 341.7 11.6 333 21.8
2008-10-31 08:45:38 51°23.477 2°46.297 343.5 11.5 336 25.7
2008-10-31 08:46:38 51°23.65 2°46.167 343.1 11.6 333 27.3
2008-10-31 08:47:38 51°23.823 2°46.032 343.2 11.5 335 27.8
2008-10-31 08:48:38 51°23.996 2°45.903 352.5 11.1 345 26.6
2008-10-31 08:49:38 51°24.166 2°45.928 24 10.2 19 26.6
2008-10-31 08:50:38 51°24.308 2°46.062 40.6 9.9 39 25.1
2008-10-31 08:51:38 51°24.435 2°46.232 43.2 10 41 26.4
2008-10-31 08:52:38 51°24.564 2°46.401 41.1 9.9 38 27.6
2008-10-31 08:53:38 51°24.687 2°46.578 46.4 10 46 25.1
2008-10-31 08:54:38 51°24.8 2°46.772 48.2 10 50 26.5
2008-10-31 08:55:38 51°24.904 2°46.98 50.8 10 52 28
2008-10-31 08:56:38 51°25.01 2°47.188 50.8 10.1 52 26.3
2008-10-31 08:57:38 51°25.115 2°47.396 50.6 10.1 53 25.5
2008-10-31 08:58:38 51°25.212 2°47.615 53.8 10 55 25.7
2008-10-31 08:59:38 51°25.301 2°47.844 57.4 10.1 59 25.7
2008-10-31 09:00:38 51°25.386 2°48.077 56.5 10.2 61 26.8
2008-10-31 09:01:38 51°25.477 2°48.308 56.3 10.3 59 26.9
2008-10-31 09:02:38 51°25.563 2°48.545 58 10.3 60 23.7
2008-10-31 09:03:38 51°25.649 2°48.781 57.2 10.3 60 23.9
2008-10-31 09:04:38 51°25.743 2°49.011 54.1 10.2 56 23.6
2008-10-31 09:05:38 51°25.839 2°49.236 53.7 10.3 56 23
2008-10-31 09:06:38 51°25.936 2°49.461 53.6 10.3 55 22.7
2008-10-31 09:07:38 51°26.034 2°49.688 53.4 10.3 55 22.9
2008-10-31 09:08:38 51°26.133 2°49.914 52.9 10.4 55 22.9
2008-10-31 09:09:38 51°26.23 2°50.147 54.8 10.6 56 23.1
2008-10-31 09:10:38 51°26.326 2°50.381 54.8 10.5 57 23
2008-10-31 09:11:38 51°26.423 2°50.613 55 10.5 55 23.1
2008-10-31 09:12:38 51°26.521 2°50.843 52.7 10.4 53 22.8
2008-10-31 09:13:38 51°26.621 2°51.066 54.8 10.4 55 24.2
2008-10-31 09:14:38 51°26.71 2°51.304 57.2 10.3 59 24
2008-10-31 09:15:38 51°26.801 2°51.538 57.2 10.4 60 24.3
2008-10-31 09:16:38 51°26.89 2°51.775 57.2 10.4 59 21.6
2008-10-31 09:17:38 51°26.979 2°52.013 57.1 10.4 59 23.5
2008-10-31 09:18:38 51°27.065 2°52.253 57.2 10.4 61 20.2
2008-10-31 09:19:38 51°27.15 2°52.494 58.7 10.4 62 19.8
2008-10-31 09:20:38 51°27.239 2°52.731 56.3 10.4 60 20.7
2008-10-31 09:21:38 51°27.323 2°52.974 58.5 10.4 61 20.6
2008-10-31 09:22:38 51°27.41 2°53.213 56.1 10.4 59 22.4
2008-10-31 09:23:38 51°27.5 2°53.45 56.7 10.4 59 24.3
2008-10-31 09:24:38 51°27.584 2°53.693 58.2 10.4 61 22.8
2008-10-31 09:25:38 51°27.67 2°53.933 56 10.4 57 23.6
2008-10-31 09:26:38 51°27.757 2°54.173 57.4 10.4 60 21.9
2008-10-31 09:27:38 51°27.846 2°54.41 58.1 10.3 58 23
2008-10-31 09:28:38 51°27.933 2°54.647 57.1 10.3 60 23.6
2008-10-31 09:29:38 51°28.015 2°54.888 58.2 10.4 62 22.4
2008-10-31 09:30:38 51°28.102 2°55.124 57.2 10.3 60 24.2
2008-10-31 09:31:38 51°28.188 2°55.359 58.4 10.2 62 24.2
2008-10-31 09:32:38 51°28.273 2°55.599 57.9 10.3 61 25
2008-10-31 09:33:38 51°28.36 2°55.834 57.6 10.4 59 26
2008-10-31 09:34:38 51°28.446 2°56.072 56.9 10.3 59 25.8
2008-10-31 09:35:38 51°28.534 2°56.307 58.2 10.3 60 25.6
2008-10-31 09:36:38 51°28.622 2°56.54 57.5 10.3 59 26.5
2008-10-31 09:37:38 51°28.71 2°56.775 58.3 10.3 61 26.1
2008-10-31 09:38:38 51°28.797 2°57.013 57.5 10.4 60 26.4
2008-10-31 09:39:38 51°28.884 2°57.252 58.4 10.3 61 26.3
2008-10-31 09:40:38 51°28.97 2°57.491 57.6 10.4 59 26.1
2008-10-31 09:41:38 51°29.062 2°57.722 56.6 10.3 58 26.4
2008-10-31 09:42:38 51°29.149 2°57.959 56.3 10.3 57 24.8
2008-10-31 09:43:38 51°29.24 2°58.189 57.3 10.4 58 26.5
2008-10-31 09:44:38 51°29.328 2°58.424 56.2 10.2 56 26.6
2008-10-31 09:45:38 51°29.42 2°58.655 57.2 10.3 59 27
2008-10-31 09:46:38 51°29.508 2°58.889 56 10.2 58 26.9
2008-10-31 09:47:38 51°29.595 2°59.124 58.4 10.3 60 26.6
2008-10-31 09:48:38 51°29.682 2°59.362 57.6 10.3 59 27
2008-10-31 09:49:38 51°29.768 2°59.6 58.4 10.3 61 27
2008-10-31 09:50:38 51°29.86 2°59.834 56.2 10.4 57 27
2008-10-31 09:51:38 51°29.947 3°0.072 58.4 10.3 60 27
2008-10-31 09:52:38 51°30.032 3°0.31 57 10.3 58 27
2008-10-31 09:53:38 51°30.124 3°0.547 56.5 10.6 59 27.9
2008-10-31 09:54:38 51°30.215 3°0.789 57.4 10.6 59 28
2008-10-31 09:55:38 51°30.307 3°1.032 56.2 10.7 58 27.3
2008-10-31 09:56:38 51°30.401 3°1.27 57.2 10.5 59 27.6
2008-10-31 09:57:38 51°30.494 3°1.512 57.2 10.6 59 27.3
2008-10-31 09:58:38 51°30.587 3°1.753 56.9 10.6 59 27.3
2008-10-31 09:59:38 51°30.681 3°1.995 56.4 10.7 58 27.6
2008-10-31 10:00:38 51°30.773 3°2.24 56.8 10.8 59 27.8
2008-10-31 10:01:38 51°30.866 3°2.482 56.7 10.7 58 27.9
2008-10-31 10:02:38 51°30.958 3°2.725 56.6 10.6 59 28
2008-10-31 10:03:38 51°31.052 3°2.964 55.2 10.6 58 28.1
2008-10-31 10:04:38 51°31.146 3°3.203 55.1 10.4 57 28.2
2008-10-31 10:05:38 51°31.242 3°3.444 56.6 10.8 59 28.6
2008-10-31 10:06:38 51°31.335 3°3.693 57 10.8 60 28
2008-10-31 10:07:38 51°31.433 3°3.934 53.4 10.8 56 27.8
2008-10-31 10:08:38 51°31.533 3°4.173 54 10.8 58 27.5
2008-10-31 10:09:38 51°31.628 3°4.417 57.4 10.7 60 28.1
2008-10-31 10:10:38 51°31.722 3°4.663 53.3 10.7 52 28.8
2008-10-31 10:11:38 51°31.864 3°4.828 28.8 10.6 21 28.3
2008-10-31 10:12:38 51°32.045 3°4.857 1.2 11.2 355 28.4
2008-10-31 10:13:38 51°32.22 3°4.725 336.8 11.8 329 27.7
2008-10-31 10:14:38 51°32.372 3°4.516 322.3 12.3 313 28.6
2008-10-31 10:15:38 51°32.518 3°4.289 322.9 12.2 317 31.8
2008-10-31 10:16:38 51°32.671 3°4.073 325.3 12.1 319 32
2008-10-31 10:17:38 51°32.797 3°3.819 303.8 12.5 296 28
2008-10-31 10:18:38 51°32.862 3°3.5 284.4 12.8 280 23.7
2008-10-31 10:19:38 51°32.835 3°3.16 254.4 13.3 246 20.8
2008-10-31 10:20:38 51°32.724 3°2.854 237.3 13.5 238 22.2
2008-10-31 10:21:38 51°32.611 3°2.544 241.8 13.3 239 21.4
2008-10-31 10:22:38 51°32.507 3°2.228 242.9 13.6 243 23.6
2008-10-31 10:23:38 51°32.406 3°1.904 245.5 13.3 244 23.6
2008-10-31 10:24:38 51°32.305 3°1.584 244.5 13.3 246 23.3
2008-10-31 10:25:38 51°32.204 3°1.261 246 13.6 244 24.8
2008-10-31 10:26:38 51°32.107 3°0.936 246.6 13.5 244 24.4
2008-10-31 10:27:38 51°32.013 3°0.606 246.5 13.6 246 23.1
2008-10-31 10:28:38 51°31.914 3°0.278 247.2 13.8 241 24.9
2008-10-31 10:29:38 51°31.819 2°59.948 248.1 13.7 247 25.7
2008-10-31 10:30:38 51°31.725 2°59.613 248.3 13.7 245 27.9
2008-10-31 10:31:38 51°31.628 2°59.277 247.4 13.8 248 28.8
2008-10-31 10:32:38 51°31.53 2°58.94 246.6 13.9 243 29.4
2008-10-31 10:33:38 51°31.431 2°58.601 247.2 14 247 29.6
2008-10-31 10:34:38 51°31.333 2°58.262 247.2 14 246 29.8
2008-10-31 10:35:38 51°31.235 2°57.92 246.8 14.2 247 30
2008-10-31 10:36:38 51°31.14 2°57.574 247.7 14 244 30.5
2008-10-31 10:37:38 51°31.044 2°57.232 247.3 14 244 31
2008-10-31 10:38:38 51°30.946 2°56.892 246.6 14 247 31.2
2008-10-31 10:39:38 51°30.85 2°56.553 248.1 13.9 248 32.1
2008-10-31 10:40:38 51°30.756 2°56.213 246.7 13.9 245 33.9
2008-10-31 10:41:38 51°30.66 2°55.877 247.1 13.6 245 34.5
2008-10-31 10:42:38 51°30.565 2°55.552 244.5 13.4 244 36
2008-10-31 10:43:38 51°30.463 2°55.237 240.9 13.3 242 37.1
2008-10-31 10:44:38 51°30.356 2°54.921 242.6 13.5 241 34.8
2008-10-31 10:45:38 51°30.253 2°54.606 242 13.3 239 34
2008-10-31 10:46:38 51°30.145 2°54.298 239.9 13.2 241 32.8
2008-10-31 10:47:38 51°30.038 2°53.989 242 13.3 244 31.3
2008-10-31 10:48:38 51°29.927 2°53.679 239 13.4 246 32.7
2008-10-31 10:49:38 51°29.817 2°53.369 241.3 13.4 239 32.4
2008-10-31 10:50:38 51°29.71 2°53.058 239.9 13.4 242 31.8
2008-10-31 10:51:38 51°29.603 2°52.744 241.6 13.4 240 31
2008-10-31 10:52:39 51°29.498 2°52.425 241.6 13.3 243 30.7
2008-10-31 10:53:38 51°29.396 2°52.118 242.1 13.3 237 30.6
2008-10-31 10:54:38 51°29.288 2°51.808 240.6 13.3 242 31
2008-10-31 10:55:38 51°29.178 2°51.499 239.6 13.5 241 29
2008-10-31 10:56:38 51°29.07 2°51.186 241.9 13.4 244 30.2
2008-10-31 10:57:38 51°28.963 2°50.874 242.9 13.4 242 28.7
2008-10-31 10:58:38 51°28.858 2°50.56 241.8 13.3 242 27.2
2008-10-31 10:59:38 51°28.754 2°50.246 240.6 13.3 245 26.4
2008-10-31 11:00:38 51°28.642 2°49.932 240.1 13.5 245 27.7
2008-10-31 11:01:38 51°28.536 2°49.621 242.3 13.4 236 29.9
2008-10-31 11:02:38 51°28.432 2°49.307 240.8 13.5 245 30.2
2008-10-31 11:03:38 51°28.326 2°48.993 241 13.4 238 27.9
2008-10-31 11:04:38 51°28.22 2°48.677 241.7 13.5 245 26
2008-10-31 11:05:38 51°28.11 2°48.365 241.2 13.4 240 30.1
2008-10-31 11:06:38 51°28.003 2°48.06 240.7 13.2 242 29.6
2008-10-31 11:07:38 51°27.897 2°47.749 242.4 13.2 244 29.5
2008-10-31 11:08:38 51°27.79 2°47.438 240.9 13.4 242 32
2008-10-31 11:09:38 51°27.684 2°47.127 239.4 13.4 239 31.5
2008-10-31 11:10:38 51°27.578 2°46.819 240.9 13.6 241 31.6
2008-10-31 11:11:38 51°27.472 2°46.505 241.8 13.3 243 31.5
2008-10-31 11:12:38 51°27.366 2°46.188 241.2 13.5 245 30.7
2008-10-31 11:13:38 51°27.26 2°45.873 241.5 13.5 245 30.1
2008-10-31 11:14:38 51°27.158 2°45.552 242.6 13.6 242 29.3
2008-10-31 11:15:38 51°27.052 2°45.236 240.9 13.4 240 28.6
2008-10-31 11:16:38 51°26.947 2°44.924 241.9 13.4 242 29.2
2008-10-31 11:17:38 51°26.845 2°44.613 240.1 13.2 239 28
2008-10-31 11:18:38 51°26.741 2°44.302 240.9 13.3 247 27.6
2008-10-31 11:19:38 51°26.635 2°43.995 240.7 13.2 242 25.5
2008-10-31 11:20:38 51°26.532 2°43.687 240.9 13.2 243 23.7
2008-10-31 11:21:38 51°26.481 2°43.375 283.4 11.7 290 25.7
2008-10-31 11:22:38 51°26.623 2°43.169 323.9 11.9 323 26.7
2008-10-31 11:23:38 51°26.778 2°42.97 323.9 12 322 31.2
2008-10-31 11:24:38 51°26.935 2°42.772 325.2 12 321 32.3
2008-10-31 11:25:38 51°27.098 2°42.596 330.6 11.8 328 32.8
2008-10-31 11:26:38 51°27.269 2°42.441 331.6 11.8 331 32.3
2008-10-31 11:27:38 51°27.443 2°42.297 340.4 11.5 345 31.6
2008-10-31 11:28:38 51°27.608 2°42.395 43.8 11.3 52 31.6
2008-10-31 11:29:38 51°27.7 2°42.67 59.5 12 62 32.7
2008-10-31 11:30:38 51°27.794 2°42.953 57.5 12.1 60 33.6
2008-10-31 11:31:38 51°27.901 2°43.225 55.3 12 58 33.6
2008-10-31 11:32:38 51°28.007 2°43.497 56.5 12.1 58 33.3
2008-10-31 11:33:38 51°28.109 2°43.775 57.6 12.1 60 31.8
2008-10-31 11:34:38 51°28.208 2°44.057 59.3 12.2 60 30.8
2008-10-31 11:35:38 51°28.308 2°44.339 59.6 12.1 60 32.1
2008-10-31 11:36:38 51°28.406 2°44.623 59.2 12.3 61 30.8
2008-10-31 11:37:38 51°28.504 2°44.907 59.6 12.2 62 29.8
2008-10-31 11:38:38 51°28.604 2°45.189 57.2 12.1 60 27.7
2008-10-31 11:39:38 51°28.701 2°45.472 58.6 12.1 62 25.7
2008-10-31 11:40:38 51°28.797 2°45.757 60 12.1 62 25.2
2008-10-31 11:41:38 51°28.896 2°46.039 56.4 12 58 26.1
2008-10-31 11:42:38 51°28.995 2°46.322 59.3 12.2 61 25.6
2008-10-31 11:43:38 51°29.091 2°46.603 56.7 12 58 27.4
2008-10-31 11:44:38 51°29.186 2°46.886 58.7 12 61 25.6
2008-10-31 11:45:38 51°29.282 2°47.171 58.5 12.1 61 27.1
2008-10-31 11:46:38 51°29.386 2°47.448 56.5 12.1 60 26
2008-10-31 11:47:38 51°29.487 2°47.728 56.6 12.2 60 24
2008-10-31 11:48:38 51°29.589 2°48.009 55.8 12.2 60 23.4
2008-10-31 11:49:38 51°29.692 2°48.289 56.2 12.2 59 25.1
2008-10-31 11:50:38 51°29.788 2°48.578 59.8 12.3 63 25.6
2008-10-31 11:51:38 51°29.884 2°48.868 59 12.4 62 25.1
2008-10-31 11:52:38 51°29.982 2°49.156 57.1 12.2 60 24.5
2008-10-31 11:53:38 51°30.082 2°49.442 57.6 12.3 61 23.5
2008-10-31 11:54:38 51°30.186 2°49.724 55.2 12.3 59 23.9
2008-10-31 11:55:38 51°30.287 2°50.011 58 12.4 62 24.5
2008-10-31 11:56:38 51°30.383 2°50.302 58.1 12.4 61 18
2008-10-31 11:57:38 51°30.488 2°50.585 55.5 12.3 59 24.2
2008-10-31 11:58:39 51°30.588 2°50.881 58.7 12.5 63 20.8
2008-10-31 11:59:38 51°30.69 2°51.16 53.3 12.3 57 23.3
2008-10-31 12:00:38 51°30.817 2°51.415 46.4 12.3 49 23.5
2008-10-31 12:01:38 51°30.96 2°51.645 40.5 12.2 43 20.8
2008-10-31 12:02:38 51°31.107 2°51.874 40.2 12.4 43 22.7
2008-10-31 12:03:38 51°31.258 2°52.092 37.6 12.2 40 23.5
2008-10-31 12:04:38 51°31.412 2°52.303 37.3 12.2 40 23.6
2008-10-31 12:05:39 51°31.573 2°52.509 35.6 12.2 38 23.6
2008-10-31 12:06:38 51°31.729 2°52.714 36.1 12.3 39 23.7
2008-10-31 12:07:38 51°31.891 2°52.916 35.1 12.3 37 23.9
2008-10-31 12:08:38 51°32.055 2°53.112 33 12.4 36 21.1
2008-10-31 12:09:38 51°32.218 2°53.312 32.9 12.3 36 23.9
2008-10-31 12:10:38 51°32.387 2°53.5 32 12.3 35 24.4
2008-10-31 12:11:38 51°32.554 2°53.694 34.5 12.4 37 23.2
2008-10-31 12:12:39 51°32.724 2°53.894 33.5 12.4 36 27.7
2008-10-31 12:13:38 51°32.887 2°54.09 36.2 12.5 39 26.6
2008-10-31 12:14:38 51°33.051 2°54.292 35.3 12.6 39 27.1
2008-10-31 12:15:38 51°33.216 2°54.497 35.8 12.5 38 25.5
2008-10-31 12:16:38 51°33.367 2°54.728 46.4 12.7 49 28.5
2008-10-31 12:17:38 51°33.494 2°54.999 50.3 12.8 53 27
2008-10-31 12:18:38 51°33.623 2°55.269 49.7 12.8 52 29.9
2008-10-31 12:19:38 51°33.743 2°55.552 57.1 12.9 60 29.6
2008-10-31 12:20:38 51°33.838 2°55.86 63.5 12.9 65 29.6
2008-10-31 12:21:39 51°33.918 2°56.187 65.9 12.9 68 29
2008-10-31 12:22:38 51°33.997 2°56.501 66 12.8 67 29.5
2008-10-31 12:23:39 51°34.081 2°56.823 66 12.8 65 30.9
2008-10-31 12:24:38 51°34.171 2°57.128 62.3 12.8 64 30.1
2008-10-31 12:25:38 51°34.262 2°57.438 63.9 12.8 65 29.2
2008-10-31 12:26:38 51°34.352 2°57.75 63.5 12.9 65 29.7
2008-10-31 12:27:38 51°34.437 2°58.07 64.4 13 67 30.2
2008-10-31 12:28:38 51°34.521 2°58.387 65.4 12.9 67 30.1
2008-10-31 12:29:38 51°34.606 2°58.701 63.8 12.8 63 28.6
2008-10-31 12:30:39 51°34.696 2°59.017 64.6 12.8 66 29.5
2008-10-31 12:31:38 51°34.778 2°59.331 66 13.1 67 26.9
2008-10-31 12:32:39 51°34.863 2°59.656 65.2 13 67 29.5
2008-10-31 12:33:38 51°34.962 2°59.951 51.6 12.6 52 28.9
2008-10-31 12:34:38 51°35.142 3°0.094 4.6 12.1 5 25.7
2008-10-31 12:35:38 51°35.312 2°59.965 311.8 11.5 312 30.2
2008-10-31 12:36:38 51°35.383 2°59.676 284.1 11.7 288 31
2008-10-31 12:37:38 51°35.441 2°59.376 285.7 11.7 291 31.7
2008-10-31 12:38:38 51°35.485 2°59.078 274.8 11.3 275 32.5
2008-10-31 12:39:38 51°35.463 2°58.776 254.2 11.4 258 33.4
2008-10-31 12:40:38 51°35.402 2°58.486 248.9 11.5 249 34.8
2008-10-31 12:41:38 51°35.338 2°58.198 249 11.3 249 34.9
2008-10-31 12:42:38 51°35.263 2°57.917 245.7 11.4 245 30.9
2008-10-31 12:43:38 51°35.176 2°57.642 241.9 11.5 244 35.8
2008-10-31 12:44:38 51°35.092 2°57.366 245.5 11.4 242 35.9
2008-10-31 12:45:38 51°35.005 2°57.093 243.1 11.4 244 35
2008-10-31 12:46:38 51°34.916 2°56.82 240 11.5 238 34.5
2008-10-31 12:47:38 51°34.825 2°56.552 241.4 11.5 241 34.6
2008-10-31 12:48:38 51°34.73 2°56.285 239.7 11.4 239 34.9
2008-10-31 12:49:38 51°34.641 2°56.013 241.7 11.5 244 35
2008-10-31 12:50:38 51°34.551 2°55.744 242.2 11.4 244 32.7
2008-10-31 12:51:38 51°34.458 2°55.479 239.9 11.5 239 34.5
2008-10-31 12:52:38 51°34.36 2°55.219 239.4 11.4 240 33.4
2008-10-31 12:53:38 51°34.262 2°54.959 237.3 11.3 235 31.8
2008-10-31 12:54:38 51°34.167 2°54.698 240.6 11.2 238 31.1
2008-10-31 12:55:38 51°34.07 2°54.442 237.9 11 238 31.7
2008-10-31 12:56:38 51°33.975 2°54.187 239.5 11.2 240 32.1
2008-10-31 12:57:38 51°33.881 2°53.929 239.6 11.2 241 31.5
2008-10-31 12:58:38 51°33.787 2°53.672 238.1 11.1 240 32.5
2008-10-31 12:59:38 51°33.696 2°53.412 241.6 11 241 32.9
2008-10-31 13:00:38 51°33.606 2°53.154 239.8 11.1 241 33.4
2008-10-31 13:01:38 51°33.512 2°52.895 238.1 11.2 238 33.5
2008-10-31 13:02:38 51°33.42 2°52.637 240.6 11.1 241 33.8
2008-10-31 13:03:38 51°33.327 2°52.381 240.1 11 239 31.6
2008-10-31 13:04:38 51°33.237 2°52.123 239.2 11 243 30.7
2008-10-31 13:05:38 51°33.149 2°51.862 240.9 11.3 239 32.1
2008-10-31 13:06:38 51°33.058 2°51.601 238.4 11.3 240 33.9
2008-10-31 13:07:38 51°32.97 2°51.338 240.9 11.2 246 32
2008-10-31 13:08:38 51°32.878 2°51.078 239.8 11.1 238 34.6
2008-10-31 13:09:38 51°32.787 2°50.821 239.2 10.9 241 35.4
2008-10-31 13:10:38 51°32.696 2°50.565 237.2 11.1 244 34.5
2008-10-31 13:11:38 51°32.607 2°50.305 239.9 11.3 245 34.9
2008-10-31 13:12:38 51°32.518 2°50.042 239.5 11.2 239 32.3
2008-10-31 13:13:38 51°32.427 2°49.785 238.6 11 240 31.9
2008-10-31 13:14:38 51°32.34 2°49.528 239.4 10.9 239 36.2
2008-10-31 13:15:38 51°32.253 2°49.269 240.7 11.1 242 36
2008-10-31 13:16:38 51°32.163 2°49.014 238 10.9 234 33.3
2008-10-31 13:17:38 51°32.077 2°48.757 239.4 10.7 241 32.1
2008-10-31 13:18:38 51°31.993 2°48.501 240.2 11 242 34.2
2008-10-31 13:19:38 51°31.906 2°48.246 238.7 11 244 35.7
2008-10-31 13:20:38 51°31.818 2°47.995 238 10.7 240 34.1
2008-10-31 13:21:38 51°31.732 2°47.743 238.9 10.8 240 33.5
2008-10-31 13:22:38 51°31.647 2°47.491 239.6 10.8 241 32.7
2008-10-31 13:23:38 51°31.563 2°47.24 237.8 10.7 242 30.7
2008-10-31 13:24:38 51°31.476 2°46.989 238.4 10.8 237 31.6
2008-10-31 13:25:38 51°31.395 2°46.735 239.4 10.7 245 30.6
2008-10-31 13:26:38 51°31.311 2°46.484 239.3 10.6 242 30.3
2008-10-31 13:27:38 51°31.229 2°46.23 238 10.7 244 36.2
2008-10-31 13:28:38 51°31.146 2°45.978 239.8 10.7 243 34.7
2008-10-31 13:29:38 51°31.064 2°45.721 239.5 10.8 244 34.3
2008-10-31 13:30:38 51°30.979 2°45.467 238.3 10.8 243 34
2008-10-31 13:31:38 51°30.896 2°45.21 239.8 10.8 240 34.9
2008-10-31 13:32:38 51°30.811 2°44.951 238.1 10.9 243 39.3
2008-10-31 13:33:38 51°30.725 2°44.696 238.7 10.7 241 35
2008-10-31 13:34:38 51°30.641 2°44.44 239.3 10.9 239 34.6
2008-10-31 13:35:38 51°30.561 2°44.183 240.4 10.7 241 31.6
2008-10-31 13:36:38 51°30.482 2°43.928 238.4 10.8 245 35.4
2008-10-31 13:37:38 51°30.399 2°43.673 239.1 10.8 245 33.8
2008-10-31 13:38:38 51°30.317 2°43.418 238.7 10.8 245 34.2
2008-10-31 13:39:38 51°30.235 2°43.165 238.6 10.8 241 35.4
2008-10-31 13:40:38 51°30.155 2°42.91 241.6 10.7 243 34.2
2008-10-31 13:41:38 51°30.076 2°42.652 240.3 10.7 241 34.8
2008-10-31 13:42:38 51°29.993 2°42.396 237.6 10.9 245 33.7
2008-10-31 13:43:38 51°29.909 2°42.142 240.1 10.8 243 32.8
2008-10-31 13:44:38 51°29.822 2°41.893 234.9 10.5 233 34.2
2008-10-31 13:45:38 51°29.723 2°41.657 232.9 10.7 236 34.3
2008-10-31 13:46:38 51°29.627 2°41.417 235.2 10.7 238 34.6
2008-10-31 13:47:38 51°29.527 2°41.178 232.8 10.9 231 34.7
2008-10-31 13:48:38 51°29.423 2°40.945 232.5 10.7 234 33.2
2008-10-31 13:49:38 51°29.313 2°40.716 232.1 10.8 236 37.6
2008-10-31 13:50:38 51°29.199 2°40.493 225.7 10.9 226 35.9
2008-10-31 13:51:38 51°29.054 2°40.316 209.7 11.1 209 33.3
2008-10-31 13:52:38 51°28.888 2°40.196 203.2 11.1 207 36.9
2008-10-31 13:53:38 51°28.72 2°40.078 203.9 11.2 198 38
2008-10-31 13:54:38 51°28.546 2°39.978 201.7 11 201 36.8
2008-10-31 13:55:38 51°28.374 2°39.875 201 10.9 200 36.5
2008-10-31 13:56:38 51°28.201 2°39.777 201.6 10.9 204 36.5
2008-10-31 13:57:38 51°28.025 2°39.693 192.7 10.7 189 38.2
2008-10-31 13:58:38 51°27.84 2°39.715 170.7 11.6 166 35.5
2008-10-31 13:59:38 51°27.66 2°39.828 162.1 11.5 158 35.2
2008-10-31 14:00:38 51°27.487 2°39.951 162.4 11.2 158 35.4
2008-10-31 14:01:38 51°27.313 2°40.071 162.5 11.3 157 35.7
2008-10-31 14:02:38 51°27.137 2°40.186 163.4 11.6 155 35
2008-10-31 14:03:38 51°26.962 2°40.301 165 11.5 153 34.4
2008-10-31 14:04:38 51°26.79 2°40.434 158.4 11.6 152 32.5
2008-10-31 14:05:38 51°26.619 2°40.575 157.4 11.6 149 32.7
2008-10-31 14:06:38 51°26.451 2°40.722 156.9 11.4 154 32.7
2008-10-31 14:07:38 51°26.283 2°40.87 157 11.5 151 33.6
2008-10-31 14:08:38 51°26.116 2°41.02 156.7 11.5 151 31.8
2008-10-31 14:09:38 51°25.95 2°41.168 157.1 11.4 152 30.6
2008-10-31 14:10:38 51°25.781 2°41.304 158.6 11.2 157 30.8
2008-10-31 14:11:38 51°25.611 2°41.442 156 11.4 153 29.4
2008-10-31 14:12:38 51°25.441 2°41.583 157.8 11.3 154 27.5
2008-10-31 14:13:38 51°25.272 2°41.719 156.9 11.4 151 27.2
2008-10-31 14:14:38 51°25.103 2°41.857 158.4 11.6 153 28
2008-10-31 14:15:38 51°24.938 2°42.001 158.6 11.3 152 25
2008-10-31 14:16:38 51°24.77 2°42.143 157 11.4 151 26.2
2008-10-31 14:17:38 51°24.605 2°42.287 155.7 11.2 150 19.4
2008-10-31 14:18:38 51°24.441 2°42.402 171.8 10.7 168 24.5
2008-10-31 14:19:38 51°24.264 2°42.463 174 10.9 170 27.3
2008-10-31 14:20:38 51°24.087 2°42.492 178.2 10.6 173 29
2008-10-31 14:21:38 51°23.908 2°42.522 176.6 10.7 172 28.1
2008-10-31 14:22:38 51°23.728 2°42.552 177.4 11 173 28.1
2008-10-31 14:23:38 51°23.551 2°42.586 179 10.7 172 28.8
2008-10-31 14:24:38 51°23.376 2°42.618 178.7 10.6 173 28
2008-10-31 14:25:38 51°23.199 2°42.647 178.7 10.8 173 28.7
2008-10-31 14:26:38 51°23.024 2°42.682 178.3 10.9 173 28.8
2008-10-31 14:27:38 51°22.847 2°42.714 178.2 10.7 174 28
2008-10-31 14:28:38 51°22.67 2°42.748 177.7 10.8 175 27.3
2008-10-31 14:29:38 51°22.493 2°42.777 176.9 10.7 178 27.3
2008-10-31 14:30:38 51°22.313 2°42.805 177.1 10.9 174 25.4
2008-10-31 14:31:38 51°22.134 2°42.854 165 11 160 25.5
2008-10-31 14:32:38 51°21.974 2°43.014 147.1 11.7 143 27.6
2008-10-31 14:33:38 51°21.821 2°43.201 146.1 11.6 144 26.4
2008-10-31 14:34:38 51°21.669 2°43.386 145.5 11.4 143 25.4
2008-10-31 14:35:38 51°21.515 2°43.569 146.6 11.4 143 24.5
2008-10-31 14:36:38 51°21.36 2°43.75 149 11.5 143 25.1
2008-10-31 14:37:38 51°21.206 2°43.932 147.2 11.6 142 25.5
2008-10-31 14:38:38 51°21.054 2°44.122 147 11.6 144 26.6
2008-10-31 14:39:38 51°20.902 2°44.308 147.6 11.5 145 28.6
2008-10-31 14:40:38 51°20.75 2°44.495 146.1 11.1 139 29.8
2008-10-31 14:41:38 51°20.614 2°44.669 146.2 10.1 140 28.8
2008-10-31 14:42:38 51°20.483 2°44.835 145.9 10.1 140 28.9
2008-10-31 14:43:38 51°20.349 2°44.996 146.7 10.1 143 26.6
2008-10-31 14:44:38 51°20.216 2°45.168 146.5 10.5 139 25.6
2008-10-31 14:45:38 51°20.082 2°45.339 146.5 10.3 142 25
2008-10-31 14:46:38 51°19.954 2°45.519 145.2 10.1 141 18.8
2008-10-31 14:47:38 51°19.827 2°45.7 144.7 10.3 139 16.6
2008-10-31 14:48:38 51°19.694 2°45.875 146.7 10.5 140 16.5
2008-10-31 14:49:38 51°19.558 2°46.045 146.5 10.4 142 16.4
2008-10-31 14:50:38 51°19.422 2°46.215 146.4 10.4 144 21.6
2008-10-31 14:51:38 51°19.286 2°46.382 146.8 10.2 141 23.4
2008-10-31 14:52:39 51°19.148 2°46.55 146.7 10.3 143 23.7
2008-10-31 14:53:39 51°19.013 2°46.716 146.6 10.3 143 23.3
2008-10-31 14:54:39 51°18.879 2°46.884 146.5 10.2 143 22.7
2008-10-31 14:55:38 51°18.75 2°47.051 147.1 10.1 141 21.1
2008-10-31 14:56:39 51°18.615 2°47.218 146.5 10.1 141 20.2
2008-10-31 14:57:38 51°18.485 2°47.378 146.9 10.2 138 19.1
2008-10-31 14:58:39 51°18.349 2°47.545 145.9 10 140 16.6
2008-10-31 14:59:38 51°18.219 2°47.706 145.3 10 142 14
2008-10-31 15:00:38 51°18.084 2°47.866 147 10 146 13.8
2008-10-31 15:01:39 51°17.947 2°48.025 146.7 10.1 144 12.1
2008-10-31 15:02:39 51°17.812 2°48.181 146.9 9.9 146 12.7
2008-10-31 15:03:39 51°17.677 2°48.341 146.4 10 144 12
2008-10-31 15:04:39 51°17.541 2°48.505 145.7 10.5 144 11.6
2008-10-31 15:05:38 51°17.406 2°48.673 145.5 10.7 141 13.2
2008-10-31 15:06:38 51°17.268 2°48.841 146.5 10.6 140 13.6
2008-10-31 15:07:38 51°17.13 2°49.01 147 10.5 141 13.6
2008-10-31 15:08:39 51°16.991 2°49.179 146.9 10.3 143 13.2
2008-10-31 15:09:38 51°16.858 2°49.347 145.3 10.4 141 11.8
2008-10-31 15:10:39 51°16.72 2°49.518 147.1 10.5 143 13.3
2008-10-31 15:11:39 51°16.583 2°49.691 147 10.7 141 16.5
2008-10-31 15:12:38 51°16.444 2°49.862 147.3 10.6 142 13.6
2008-10-31 15:13:38 51°16.295 2°50.038 146.2 11.2 147 13.1
2008-10-31 15:14:39 51°16.146 2°50.229 134.3 11.5 131 12.4
2008-10-31 15:15:38 51°16.04 2°50.479 120.9 11.7 118 12.5
2008-10-31 15:16:38 51°15.944 2°50.754 120.6 11.9 119 14.9
2008-10-31 15:17:39 51°15.85 2°51.034 115.3 11.7 112 15.1
2008-10-31 15:18:38 51°15.785 2°51.326 111 11.9 109 15
2008-10-31 15:19:38 51°15.719 2°51.624 111.6 11.8 109 14.8
2008-10-31 15:20:38 51°15.646 2°51.916 114.5 11.9 113 14.5
2008-10-31 15:21:38 51°15.572 2°52.206 114.3 11.9 113 14.1
2008-10-31 15:22:38 51°15.484 2°52.485 120.9 11.6 120 13.7
2008-10-31 15:23:38 51°15.378 2°52.746 124.9 12 125 13.3
2008-10-31 15:24:38 51°15.265 2°53.022 125.1 12.4 126 12.8
2008-10-31 15:25:39 51°15.15 2°53.304 121.7 12.3 122 12.2
2008-10-31 15:26:38 51°15.038 2°53.574 125.3 12.4 124 11.8
2008-10-31 15:27:38 51°14.916 2°53.841 125.4 12.6 126 11.5
2008-10-31 15:28:38 51°14.801 2°54.112 124.2 12.4 123 11.7
2008-10-31 15:29:39 51°14.683 2°54.387 128.6 12.3 128 12.3
2008-10-31 15:30:39 51°14.561 2°54.65 129.1 12.3 130 12.3
2008-10-31 15:31:39 51°14.438 2°54.915 127.3 12.8 126 13
2008-10-31 15:32:39 51°14.308 2°55.161 128.4 12 130 12.5
2008-10-31 15:33:39 51°14.172 2°55.368 139 9.5 142 12.7
2008-10-31 15:34:42 51°14.059 2°55.466 153.9 6.9 157 13.2